sensor_id;sensor_type;location;lat;lon;timestamp;temperature;humidity
42097;DHT22;27754;45.414;11.084;2023-04-01T00:01:47;9.90;88.20
42097;DHT22;27754;45.414;11.084;2023-04-01T00:04:14;9.90;88.20
42097;DHT22;27754;45.414;11.084;2023-04-01T00:06:42;9.90;88.20
42097;DHT22;27754;45.414;11.084;2023-04-01T00:09:09;10.00;88.10
42097;DHT22;27754;45.414;11.084;2023-04-01T00:11:36;10.00;88.00
42097;DHT22;27754;45.414;11.084;2023-04-01T00:14:03;10.00;88.00
42097;DHT22;27754;45.414;11.084;2023-04-01T00:16:30;10.00;87.80
42097;DHT22;27754;45.414;11.084;2023-04-01T00:18:57;10.00;87.80
42097;DHT22;27754;45.414;11.084;2023-04-01T00:21:25;10.00;87.90
42097;DHT22;27754;45.414;11.084;2023-04-01T00:23:52;10.00;88.00
42097;DHT22;27754;45.414;11.084;2023-04-01T00:26:19;9.90;88.50
42097;DHT22;27754;45.414;11.084;2023-04-01T00:28:48;9.90;88.90
42097;DHT22;27754;45.414;11.084;2023-04-01T00:31:15;9.90;88.50
42097;DHT22;27754;45.414;11.084;2023-04-01T00:33:42;9.90;89.50
42097;DHT22;27754;45.414;11.084;2023-04-01T00:36:18;9.90;89.90
42097;DHT22;27754;45.414;11.084;2023-04-01T00:38:46;9.80;89.80
42097;DHT22;27754;45.414;11.084;2023-04-01T00:41:15;9.70;90.40
42097;DHT22;27754;45.414;11.084;2023-04-01T00:43:45;9.60;91.10
42097;DHT22;27754;45.414;11.084;2023-04-01T00:46:13;9.50;91.30
42097;DHT22;27754;45.414;11.084;2023-04-01T00:48:54;9.50;90.90
42097;DHT22;27754;45.414;11.084;2023-04-01T00:51:25;9.40;90.80
42097;DHT22;27754;45.414;11.084;2023-04-01T00:53:56;9.40;90.30
42097;DHT22;27754;45.414;11.084;2023-04-01T00:56:38;9.40;90.60
42097;DHT22;27754;45.414;11.084;2023-04-01T00:59:11;9.40;90.80
42097;DHT22;27754;45.414;11.084;2023-04-01T01:01:40;9.50;90.60
42097;DHT22;27754;45.414;11.084;2023-04-01T01:04:18;9.50;90.80
42097;DHT22;27754;45.414;11.084;2023-04-01T01:07:03;9.60;91.10
42097;DHT22;27754;45.414;11.084;2023-04-01T01:12:35;9.60;91.80
42097;DHT22;27754;45.414;11.084;2023-04-01T01:24:12;9.60;91.90
42097;DHT22;27754;45.414;11.084;2023-04-01T01:29:45;9.70;91.60
42097;DHT22;27754;45.414;11.084;2023-04-01T01:32:39;9.80;91.50
42097;DHT22;27754;45.414;11.084;2023-04-01T01:38:17;9.70;91.30
42097;DHT22;27754;45.414;11.084;2023-04-01T01:40:53;9.70;90.90
42097;DHT22;27754;45.414;11.084;2023-04-01T01:43:24;9.80;90.90
42097;DHT22;27754;45.414;11.084;2023-04-01T01:45:58;9.80;90.50
42097;DHT22;27754;45.414;11.084;2023-04-01T01:48:27;9.80;90.50
42097;DHT22;27754;45.414;11.084;2023-04-01T01:50:56;9.80;90.60
42097;DHT22;27754;45.414;11.084;2023-04-01T01:53:23;9.70;90.40
42097;DHT22;27754;45.414;11.084;2023-04-01T01:55:50;9.70;90.50
42097;DHT22;27754;45.414;11.084;2023-04-01T01:58:45;9.80;90.20
42097;DHT22;27754;45.414;11.084;2023-04-01T02:01:20;9.60;89.80
42097;DHT22;27754;45.414;11.084;2023-04-01T02:03:51;9.50;89.90
42097;DHT22;27754;45.414;11.084;2023-04-01T02:06:22;9.40;90.10
42097;DHT22;27754;45.414;11.084;2023-04-01T02:08:59;9.40;90.10
42097;DHT22;27754;45.414;11.084;2023-04-01T02:11:32;9.40;90.30
42097;DHT22;27754;45.414;11.084;2023-04-01T02:14:08;9.40;90.40
42097;DHT22;27754;45.414;11.084;2023-04-01T02:16:39;9.30;90.30
42097;DHT22;27754;45.414;11.084;2023-04-01T02:19:10;9.20;90.10
42097;DHT22;27754;45.414;11.084;2023-04-01T02:21:39;9.20;90.40
42097;DHT22;27754;45.414;11.084;2023-04-01T02:24:12;9.20;90.40
42097;DHT22;27754;45.414;11.084;2023-04-01T02:26:40;9.10;89.60
42097;DHT22;27754;45.414;11.084;2023-04-01T02:29:08;9.00;88.80
42097;DHT22;27754;45.414;11.084;2023-04-01T02:31:36;9.00;89.30
42097;DHT22;27754;45.414;11.084;2023-04-01T02:34:04;8.90;89.50
42097;DHT22;27754;45.414;11.084;2023-04-01T02:36:32;8.90;89.80
42097;DHT22;27754;45.414;11.084;2023-04-01T02:38:59;8.90;89.60
42097;DHT22;27754;45.414;11.084;2023-04-01T02:41:29;8.90;89.70
42097;DHT22;27754;45.414;11.084;2023-04-01T02:43:56;8.90;89.20
42097;DHT22;27754;45.414;11.084;2023-04-01T02:46:25;8.90;89.20
42097;DHT22;27754;45.414;11.084;2023-04-01T02:48:52;8.80;88.80
42097;DHT22;27754;45.414;11.084;2023-04-01T02:51:20;8.70;89.20
42097;DHT22;27754;45.414;11.084;2023-04-01T02:53:47;8.70;89.30
42097;DHT22;27754;45.414;11.084;2023-04-01T02:56:14;8.70;89.30
42097;DHT22;27754;45.414;11.084;2023-04-01T02:58:41;8.70;88.50
42097;DHT22;27754;45.414;11.084;2023-04-01T03:01:08;8.60;88.50
42097;DHT22;27754;45.414;11.084;2023-04-01T03:03:35;8.70;88.50
42097;DHT22;27754;45.414;11.084;2023-04-01T03:06:10;8.60;88.50
42097;DHT22;27754;45.414;11.084;2023-04-01T03:08:38;8.60;88.40
42097;DHT22;27754;45.414;11.084;2023-04-01T03:11:05;8.50;88.20
42097;DHT22;27754;45.414;11.084;2023-04-01T03:13:34;8.50;88.10
42097;DHT22;27754;45.414;11.084;2023-04-01T03:16:01;8.40;88.10
42097;DHT22;27754;45.414;11.084;2023-04-01T03:18:29;8.40;87.30
42097;DHT22;27754;45.414;11.084;2023-04-01T03:20:56;8.10;87.10
42097;DHT22;27754;45.414;11.084;2023-04-01T03:23:23;8.00;87.90
42097;DHT22;27754;45.414;11.084;2023-04-01T03:25:51;8.00;88.00
42097;DHT22;27754;45.414;11.084;2023-04-01T03:28:17;8.10;87.90
42097;DHT22;27754;45.414;11.084;2023-04-01T03:30:44;8.10;88.00
42097;DHT22;27754;45.414;11.084;2023-04-01T03:33:12;8.10;87.60
42097;DHT22;27754;45.414;11.084;2023-04-01T03:35:38;8.10;87.60
42097;DHT22;27754;45.414;11.084;2023-04-01T03:38:05;8.10;87.60
42097;DHT22;27754;45.414;11.084;2023-04-01T03:40:32;8.10;87.10
42097;DHT22;27754;45.414;11.084;2023-04-01T03:43:01;8.10;87.30
42097;DHT22;27754;45.414;11.084;2023-04-01T03:45:28;8.10;86.90
42097;DHT22;27754;45.414;11.084;2023-04-01T03:47:55;8.10;87.10
42097;DHT22;27754;45.414;11.084;2023-04-01T03:50:22;8.00;87.00
42097;DHT22;27754;45.414;11.084;2023-04-01T03:52:49;7.90;87.10
42097;DHT22;27754;45.414;11.084;2023-04-01T03:55:16;7.90;87.20
42097;DHT22;27754;45.414;11.084;2023-04-01T03:57:45;7.80;88.10
42097;DHT22;27754;45.414;11.084;2023-04-01T04:00:17;7.80;88.30
42097;DHT22;27754;45.414;11.084;2023-04-01T04:02:49;7.70;88.00
42097;DHT22;27754;45.414;11.084;2023-04-01T04:05:20;7.60;88.00
42097;DHT22;27754;45.414;11.084;2023-04-01T04:07:47;7.60;88.30
42097;DHT22;27754;45.414;11.084;2023-04-01T04:10:14;7.60;88.50
42097;DHT22;27754;45.414;11.084;2023-04-01T04:12:42;7.50;87.40
42097;DHT22;27754;45.414;11.084;2023-04-01T04:15:10;7.30;87.00
42097;DHT22;27754;45.414;11.084;2023-04-01T04:17:37;7.30;87.70
42097;DHT22;27754;45.414;11.084;2023-04-01T04:20:04;7.30;88.10
42097;DHT22;27754;45.414;11.084;2023-04-01T04:22:31;7.30;87.90
42097;DHT22;27754;45.414;11.084;2023-04-01T04:24:59;7.30;88.20
42097;DHT22;27754;45.414;11.084;2023-04-01T04:27:26;7.30;88.50
42097;DHT22;27754;45.414;11.084;2023-04-01T04:30:03;7.30;88.40
42097;DHT22;27754;45.414;11.084;2023-04-01T04:32:30;7.40;88.50
42097;DHT22;27754;45.414;11.084;2023-04-01T04:34:57;7.40;88.80
42097;DHT22;27754;45.414;11.084;2023-04-01T04:37:24;7.50;88.30
42097;DHT22;27754;45.414;11.084;2023-04-01T04:39:52;7.60;88.60
42097;DHT22;27754;45.414;11.084;2023-04-01T04:42:19;7.60;88.60
42097;DHT22;27754;45.414;11.084;2023-04-01T04:44:48;7.50;88.30
42097;DHT22;27754;45.414;11.084;2023-04-01T04:47:15;7.50;88.10
42097;DHT22;27754;45.414;11.084;2023-04-01T04:49:42;7.40;88.30
42097;DHT22;27754;45.414;11.084;2023-04-01T04:52:09;7.40;88.40
42097;DHT22;27754;45.414;11.084;2023-04-01T04:54:36;7.30;88.20
42097;DHT22;27754;45.414;11.084;2023-04-01T04:57:04;7.30;88.40
42097;DHT22;27754;45.414;11.084;2023-04-01T04:59:37;7.40;88.50
42097;DHT22;27754;45.414;11.084;2023-04-01T05:02:26;7.40;88.40
42097;DHT22;27754;45.414;11.084;2023-04-01T05:04:54;7.50;88.30
42097;DHT22;27754;45.414;11.084;2023-04-01T05:07:21;7.60;88.20
42097;DHT22;27754;45.414;11.084;2023-04-01T05:09:48;7.70;87.90
42097;DHT22;27754;45.414;11.084;2023-04-01T05:12:15;7.70;87.30
42097;DHT22;27754;45.414;11.084;2023-04-01T05:15:05;7.80;87.10
42097;DHT22;27754;45.414;11.084;2023-04-01T05:17:33;7.80;86.70
42097;DHT22;27754;45.414;11.084;2023-04-01T05:20:01;7.90;86.40
42097;DHT22;27754;45.414;11.084;2023-04-01T05:22:29;7.80;86.10
42097;DHT22;27754;45.414;11.084;2023-04-01T05:24:56;7.90;86.20
42097;DHT22;27754;45.414;11.084;2023-04-01T05:27:23;7.90;86.20
42097;DHT22;27754;45.414;11.084;2023-04-01T05:29:50;8.00;86.00
42097;DHT22;27754;45.414;11.084;2023-04-01T05:32:46;7.90;86.10
42097;DHT22;27754;45.414;11.084;2023-04-01T05:35:13;8.00;86.40
42097;DHT22;27754;45.414;11.084;2023-04-01T05:37:40;8.00;85.90
42097;DHT22;27754;45.414;11.084;2023-04-01T05:40:09;8.10;85.90
42097;DHT22;27754;45.414;11.084;2023-04-01T05:42:36;8.10;86.10
42097;DHT22;27754;45.414;11.084;2023-04-01T05:45:04;8.10;86.20
42097;DHT22;27754;45.414;11.084;2023-04-01T05:47:50;8.20;86.80
42097;DHT22;27754;45.414;11.084;2023-04-01T05:50:18;8.20;85.90
42097;DHT22;27754;45.414;11.084;2023-04-01T05:52:46;8.40;86.00
42097;DHT22;27754;45.414;11.084;2023-04-01T05:55:13;8.40;85.70
42097;DHT22;27754;45.414;11.084;2023-04-01T05:57:40;8.50;85.20
42097;DHT22;27754;45.414;11.084;2023-04-01T06:00:07;8.70;84.90
42097;DHT22;27754;45.414;11.084;2023-04-01T06:02:41;8.80;84.50
42097;DHT22;27754;45.414;11.084;2023-04-01T06:07:42;8.90;84.80
42097;DHT22;27754;45.414;11.084;2023-04-01T06:10:20;9.10;84.50
42097;DHT22;27754;45.414;11.084;2023-04-01T06:13:07;9.30;83.00
42097;DHT22;27754;45.414;11.084;2023-04-01T06:38:53;10.80;78.60
42097;DHT22;27754;45.414;11.084;2023-04-01T06:41:38;10.90;79.20
42097;DHT22;27754;45.414;11.084;2023-04-01T06:56:32;12.20;75.00
42097;DHT22;27754;45.414;11.084;2023-04-01T06:59:22;12.10;74.20
42097;DHT22;27754;45.414;11.084;2023-04-01T07:02:01;12.20;76.00
42097;DHT22;27754;45.414;11.084;2023-04-01T07:04:37;12.40;76.20
42097;DHT22;27754;45.414;11.084;2023-04-01T07:07:17;12.50;75.90
42097;DHT22;27754;45.414;11.084;2023-04-01T07:09:56;12.70;75.50
42097;DHT22;27754;45.414;11.084;2023-04-01T07:12:38;12.90;75.10
42097;DHT22;27754;45.414;11.084;2023-04-01T07:15:36;12.90;75.50
42097;DHT22;27754;45.414;11.084;2023-04-01T07:18:44;12.90;76.50
42097;DHT22;27754;45.414;11.084;2023-04-01T07:21:04;13.10;76.20
42097;DHT22;27754;45.414;11.084;2023-04-01T07:23:44;13.10;75.70
42097;DHT22;27754;45.414;11.084;2023-04-01T07:26:34;13.30;76.10
42097;DHT22;27754;45.414;11.084;2023-04-01T07:29:14;13.30;75.20
42097;DHT22;27754;45.414;11.084;2023-04-01T07:37:59;13.60;75.00
42097;DHT22;27754;45.414;11.084;2023-04-01T07:46:17;14.10;74.60
42097;DHT22;27754;45.414;11.084;2023-04-01T07:49:14;14.20;75.00
42097;DHT22;27754;45.414;11.084;2023-04-01T07:54:46;14.30;75.30
42097;DHT22;27754;45.414;11.084;2023-04-01T07:58:19;14.40;75.50
42097;DHT22;27754;45.414;11.084;2023-04-01T08:00:50;14.40;75.90
42097;DHT22;27754;45.414;11.084;2023-04-01T08:06:45;14.70;75.50
42097;DHT22;27754;45.414;11.084;2023-04-01T08:15:19;15.10;73.50
42097;DHT22;27754;45.414;11.084;2023-04-01T08:21:01;15.10;73.80
42097;DHT22;27754;45.414;11.084;2023-04-01T08:23:56;15.00;76.00
42097;DHT22;27754;45.414;11.084;2023-04-01T08:26:34;14.90;75.10
42097;DHT22;27754;45.414;11.084;2023-04-01T08:29:14;15.10;75.20
42097;DHT22;27754;45.414;11.084;2023-04-01T08:31:49;15.30;74.60
42097;DHT22;27754;45.414;11.084;2023-04-01T08:34:23;15.30;74.20
42097;DHT22;27754;45.414;11.084;2023-04-01T08:37:15;15.10;75.80
42097;DHT22;27754;45.414;11.084;2023-04-01T08:39:47;14.80;75.70
42097;DHT22;27754;45.414;11.084;2023-04-01T08:45:48;14.90;75.10
42097;DHT22;27754;45.414;11.084;2023-04-01T08:51:25;15.10;75.30
42097;DHT22;27754;45.414;11.084;2023-04-01T08:59:47;14.80;76.40
42097;DHT22;27754;45.414;11.084;2023-04-01T09:06:11;15.00;75.30
42097;DHT22;27754;45.414;11.084;2023-04-01T09:11:44;15.30;74.00
42097;DHT22;27754;45.414;11.084;2023-04-01T09:14:53;15.30;73.10
42097;DHT22;27754;45.414;11.084;2023-04-01T09:35:20;15.90;68.70
42097;DHT22;27754;45.414;11.084;2023-04-01T09:40:58;16.10;69.30
42097;DHT22;27754;45.414;11.084;2023-04-01T09:43:50;16.00;67.80
42097;DHT22;27754;45.414;11.084;2023-04-01T09:49:18;16.00;68.60
42097;DHT22;27754;45.414;11.084;2023-04-01T10:15:22;16.30;68.20
42097;DHT22;27754;45.414;11.084;2023-04-01T10:24:28;16.70;68.60
42097;DHT22;27754;45.414;11.084;2023-04-01T10:41:38;17.00;65.50
42097;DHT22;27754;45.414;11.084;2023-04-01T10:57:02;17.50;65.30
42097;DHT22;27754;45.414;11.084;2023-04-01T11:20:56;18.10;59.50
42097;DHT22;27754;45.414;11.084;2023-04-01T11:23:38;18.10;59.20
42097;DHT22;27754;45.414;11.084;2023-04-01T11:29:52;18.30;58.50
42097;DHT22;27754;45.414;11.084;2023-04-01T11:32:54;18.30;57.60
42097;DHT22;27754;45.414;11.084;2023-04-01T11:35:43;18.30;59.80
42097;DHT22;27754;45.414;11.084;2023-04-01T11:38:22;18.40;59.40
42097;DHT22;27754;45.414;11.084;2023-04-01T11:44:16;18.30;59.80
42097;DHT22;27754;45.414;11.084;2023-04-01T11:47:19;18.40;59.30
42097;DHT22;27754;45.414;11.084;2023-04-01T12:12:31;19.20;54.20
42097;DHT22;27754;45.414;11.084;2023-04-01T12:34:57;20.00;46.10
42097;DHT22;27754;45.414;11.084;2023-04-01T13:09:13;20.90;44.80
42097;DHT22;27754;45.414;11.084;2023-04-01T13:15:18;21.00;43.40
42097;DHT22;27754;45.414;11.084;2023-04-01T13:24:31;21.40;44.40
42097;DHT22;27754;45.414;11.084;2023-04-01T13:27:22;21.20;43.70
42097;DHT22;27754;45.414;11.084;2023-04-01T13:35:46;20.70;38.10
42097;DHT22;27754;45.414;11.084;2023-04-01T13:43:48;20.50;37.50
42097;DHT22;27754;45.414;11.084;2023-04-01T13:58:03;20.20;37.80
42097;DHT22;27754;45.414;11.084;2023-04-01T14:15:25;20.90;39.90
42097;DHT22;27754;45.414;11.084;2023-04-01T14:24:21;20.80;40.10
42097;DHT22;27754;45.414;11.084;2023-04-01T14:27:11;20.80;40.30
42097;DHT22;27754;45.414;11.084;2023-04-01T14:32:49;20.80;40.00
42097;DHT22;27754;45.414;11.084;2023-04-01T14:35:35;20.60;41.60
42097;DHT22;27754;45.414;11.084;2023-04-01T14:41:17;20.30;41.40
42097;DHT22;27754;45.414;11.084;2023-04-01T14:44:05;20.30;40.40
42097;DHT22;27754;45.414;11.084;2023-04-01T14:49:50;19.80;39.00
42097;DHT22;27754;45.414;11.084;2023-04-01T14:52:33;19.80;39.90
42097;DHT22;27754;45.414;11.084;2023-04-01T14:56:12;19.60;40.00
42097;DHT22;27754;45.414;11.084;2023-04-01T15:11:43;19.40;41.10
42097;DHT22;27754;45.414;11.084;2023-04-01T15:31:17;19.40;42.40
42097;DHT22;27754;45.414;11.084;2023-04-01T15:36:36;19.20;43.40
42097;DHT22;27754;45.414;11.084;2023-04-01T15:39:14;19.20;44.20
42097;DHT22;27754;45.414;11.084;2023-04-01T15:47:32;19.10;42.30
42097;DHT22;27754;45.414;11.084;2023-04-01T15:55:42;19.00;41.40
42097;DHT22;27754;45.414;11.084;2023-04-01T16:01:05;19.00;41.00
42097;DHT22;27754;45.414;11.084;2023-04-01T16:10:09;19.40;42.40
42097;DHT22;27754;45.414;11.084;2023-04-01T16:15:34;19.60;41.40
42097;DHT22;27754;45.414;11.084;2023-04-01T16:18:45;19.60;40.70
42097;DHT22;27754;45.414;11.084;2023-04-01T16:24:46;19.50;40.30
42097;DHT22;27754;45.414;11.084;2023-04-01T16:30:03;19.50;40.00
42097;DHT22;27754;45.414;11.084;2023-04-01T16:32:48;19.60;40.80
42097;DHT22;27754;45.414;11.084;2023-04-01T16:41:42;19.40;41.50
42097;DHT22;27754;45.414;11.084;2023-04-01T16:44:24;19.30;40.60
42097;DHT22;27754;45.414;11.084;2023-04-01T16:46:56;19.20;39.50
42097;DHT22;27754;45.414;11.084;2023-04-01T16:49:41;19.20;39.60
42097;DHT22;27754;45.414;11.084;2023-04-01T16:52:15;19.10;40.00
42097;DHT22;27754;45.414;11.084;2023-04-01T16:57:30;19.00;40.60
42097;DHT22;27754;45.414;11.084;2023-04-01T17:11:20;18.60;43.10
42097;DHT22;27754;45.414;11.084;2023-04-01T17:16:52;18.30;43.30
42097;DHT22;27754;45.414;11.084;2023-04-01T17:28:21;17.90;48.60
42097;DHT22;27754;45.414;11.084;2023-04-01T17:39:27;17.70;50.10
42097;DHT22;27754;45.414;11.084;2023-04-01T17:45:29;17.40;51.40
42097;DHT22;27754;45.414;11.084;2023-04-01T17:53:49;17.00;53.90
42097;DHT22;27754;45.414;11.084;2023-04-01T18:02:20;16.80;54.30
42097;DHT22;27754;45.414;11.084;2023-04-01T18:10:35;16.70;55.10
42097;DHT22;27754;45.414;11.084;2023-04-01T18:13:25;16.60;55.60
42097;DHT22;27754;45.414;11.084;2023-04-01T18:24:22;16.40;54.10
42097;DHT22;27754;45.414;11.084;2023-04-01T18:27:02;16.40;52.80
42097;DHT22;27754;45.414;11.084;2023-04-01T18:29:53;16.30;53.10
42097;DHT22;27754;45.414;11.084;2023-04-01T18:35:28;16.20;52.20
42097;DHT22;27754;45.414;11.084;2023-04-01T18:38:13;16.20;52.10
42097;DHT22;27754;45.414;11.084;2023-04-01T18:41:07;16.20;51.40
42097;DHT22;27754;45.414;11.084;2023-04-01T18:46:48;16.10;50.50
42097;DHT22;27754;45.414;11.084;2023-04-01T18:57:48;16.10;51.20
42097;DHT22;27754;45.414;11.084;2023-04-01T19:00:32;16.10;51.50
42097;DHT22;27754;45.414;11.084;2023-04-01T19:03:23;16.00;51.80
42097;DHT22;27754;45.414;11.084;2023-04-01T19:05:53;16.10;51.50
42097;DHT22;27754;45.414;11.084;2023-04-01T19:08:28;15.90;51.50
42097;DHT22;27754;45.414;11.084;2023-04-01T19:14:19;15.90;51.20
42097;DHT22;27754;45.414;11.084;2023-04-01T19:20:11;15.70;52.80
42097;DHT22;27754;45.414;11.084;2023-04-01T19:25:38;15.40;53.40
42097;DHT22;27754;45.414;11.084;2023-04-01T19:42:14;15.20;54.10
42097;DHT22;27754;45.414;11.084;2023-04-01T19:48:05;15.20;57.30
42097;DHT22;27754;45.414;11.084;2023-04-01T19:50:55;15.20;58.50
42097;DHT22;27754;45.414;11.084;2023-04-01T19:56:22;15.10;58.40
42097;DHT22;27754;45.414;11.084;2023-04-01T19:58:54;15.10;57.20
42097;DHT22;27754;45.414;11.084;2023-04-01T20:01:44;15.10;56.50
42097;DHT22;27754;45.414;11.084;2023-04-01T20:04:24;15.10;55.90
42097;DHT22;27754;45.414;11.084;2023-04-01T20:09:47;15.00;55.60
42097;DHT22;27754;45.414;11.084;2023-04-01T20:18:03;15.00;56.10
42097;DHT22;27754;45.414;11.084;2023-04-01T20:20:32;14.90;56.30
42097;DHT22;27754;45.414;11.084;2023-04-01T20:25:43;15.00;57.20
42097;DHT22;27754;45.414;11.084;2023-04-01T20:28:30;14.90;57.40
42097;DHT22;27754;45.414;11.084;2023-04-01T20:31:20;14.90;57.70
42097;DHT22;27754;45.414;11.084;2023-04-01T20:42:34;14.90;59.10
42097;DHT22;27754;45.414;11.084;2023-04-01T20:50:51;14.90;67.50
42097;DHT22;27754;45.414;11.084;2023-04-01T21:07:41;15.30;73.00
42097;DHT22;27754;45.414;11.084;2023-04-01T21:10:36;15.30;72.90
42097;DHT22;27754;45.414;11.084;2023-04-01T21:13:15;15.30;73.00
42097;DHT22;27754;45.414;11.084;2023-04-01T21:19:31;15.20;73.10
42097;DHT22;27754;45.414;11.084;2023-04-01T21:22:16;15.10;73.40
42097;DHT22;27754;45.414;11.084;2023-04-01T21:25:22;15.10;73.80
42097;DHT22;27754;45.414;11.084;2023-04-01T21:28:20;15.00;73.90
42097;DHT22;27754;45.414;11.084;2023-04-01T21:36:59;15.00;74.10
42097;DHT22;27754;45.414;11.084;2023-04-01T21:39:40;15.00;74.20
42097;DHT22;27754;45.414;11.084;2023-04-01T21:45:26;15.00;73.30
42097;DHT22;27754;45.414;11.084;2023-04-01T21:48:13;15.00;73.20
42097;DHT22;27754;45.414;11.084;2023-04-01T22:05:19;14.90;74.40
42097;DHT22;27754;45.414;11.084;2023-04-01T22:13:17;14.90;73.80
42097;DHT22;27754;45.414;11.084;2023-04-01T22:16:09;14.90;73.90
42097;DHT22;27754;45.414;11.084;2023-04-01T22:21:56;15.00;73.70
42097;DHT22;27754;45.414;11.084;2023-04-01T22:27:42;14.90;73.80
42097;DHT22;27754;45.414;11.084;2023-04-01T22:30:33;14.90;74.10
42097;DHT22;27754;45.414;11.084;2023-04-01T22:36:12;14.90;74.30
42097;DHT22;27754;45.414;11.084;2023-04-01T22:41:45;14.90;74.40
42097;DHT22;27754;45.414;11.084;2023-04-01T22:44:58;14.90;74.50
42097;DHT22;27754;45.414;11.084;2023-04-01T22:47:51;14.80;74.50
42097;DHT22;27754;45.414;11.084;2023-04-01T22:50:32;14.80;74.70
42097;DHT22;27754;45.414;11.084;2023-04-01T22:53:17;14.80;74.50
42097;DHT22;27754;45.414;11.084;2023-04-01T22:55:49;14.80;74.70
42097;DHT22;27754;45.414;11.084;2023-04-01T22:58:32;14.80;74.60
42097;DHT22;27754;45.414;11.084;2023-04-01T23:01:23;14.90;74.10
42097;DHT22;27754;45.414;11.084;2023-04-01T23:03:52;14.90;73.80
42097;DHT22;27754;45.414;11.084;2023-04-01T23:06:24;14.90;73.20
42097;DHT22;27754;45.414;11.084;2023-04-01T23:09:13;15.00;72.10
42097;DHT22;27754;45.414;11.084;2023-04-01T23:22:43;15.10;70.70
42097;DHT22;27754;45.414;11.084;2023-04-01T23:25:44;15.00;71.00
42097;DHT22;27754;45.414;11.084;2023-04-01T23:30:58;15.00;71.20
42097;DHT22;27754;45.414;11.084;2023-04-01T23:33:29;14.90;71.60
42097;DHT22;27754;45.414;11.084;2023-04-01T23:36:09;14.70;73.40
42097;DHT22;27754;45.414;11.084;2023-04-01T23:38:39;14.40;74.90
42097;DHT22;27754;45.414;11.084;2023-04-01T23:41:25;14.30;75.70
42097;DHT22;27754;45.414;11.084;2023-04-01T23:46:24;13.90;76.90
42097;DHT22;27754;45.414;11.084;2023-04-01T23:48:52;13.80;77.30
42097;DHT22;27754;45.414;11.084;2023-04-01T23:51:25;13.80;77.60
42097;DHT22;27754;45.414;11.084;2023-04-01T23:54:01;13.80;77.70
42097;DHT22;27754;45.414;11.084;2023-04-01T23:56:37;13.60;77.60
42097;DHT22;27754;45.414;11.084;2023-04-01T23:59:05;13.70;77.40
